Terminal Aerodrome Forecast
Issued by NWS

Home | Current Version | Previous Version | Text Only | Print | Product List | Glossary On
Versions: 1 2 3 4 5 6 7 8 9 10 11 12 13 14 15 16 17 18 19 20 21 22 23 24 25 26 27 28 29 30 31 32 33 34 35 36 37 38 39 40 41 42
749
FTUS44 KHGX 191721
TAFCXO
TAF
KCXO 191721Z 1918/2018 24006KT P6SM OVC004
      TEMPO 1918/1919 -RA
     FM192100 22007KT P6SM BKN025
     FM200200 18004KT 4SM BR BKN010
     FM200600 19004KT 2SM BR OVC007
      TEMPO 2009/2012 1/2SM FG OVC002
     FM201500 21007KT 4SM BR BKN007 OVC012=

USA.gov is the U.S. government's official web portal to all federal, state and local government web resources and services.